To NAV CANADA Home Page Login to a new session Search on AWWS site Feedback and Comments Disclaimer Vers la page française équivalente Tips FAQ What's new on the site To the Forecasts and Observations / NOTAM section To "File a Flight Plan" website Publications and other links Update of the User's profile FIC Telephone Numbers My Weather Data Folder Route Weather Data Regional Weather Data Local Weather Data To the Forecasts and Observations / NOTAM section
Request Generated 08/27/2016 at 01:05:53 UTC . Weather information available at that time is displayed.

METAR/TAF

EUREKA/NU    

METAR CWEU 270100Z 28004KT 15SM SCT120 BKN240 BKN260 05/M01 A3004 RMK
AC4CI3CC1 CC TR SLP175=
METAR CWEU 270000Z 26005KT 15SM FEW140 BKN240 BKN260 05/M01 A3003 RMK
AC1CI5CC1 SLP171=
METAR CWEU 262300Z 25003KT 15SM FEW140 BKN240 BKN260 07/M00 A3003 RMK
AC1CI5CC2 AC TR SLP170=

TAF CYEU 262338Z 2700/2702 ADVISORY OFFSITE VRB03KT P6SM FEW090
SCT140 BKN240
RMK NXT FCST WILL BE ISSUED AT 271045Z=
Your time UTC time
Weather data provided by Environment Canada and NAV CANADA